Decoded Metar for PAJN (JUNEAU in AK, USA) (IATA:JNU) | Meteo·Mobile Aviation Weather
aviador You're here:

PAJN Decoded Metar

JUNEAU in AK, USA
Report Time2019-03-21 21:53:00
UTC Time2019-03-22 10:43:47
Flight Rules Old
Wind240° at 06 kt
W.Decomp.*RWY 26: 4.6 kt HW 3.9 kt LCW
W.Rank240° ranks 7
Current wind is below 240° avg. (6.3)
Visibility9999 m
Phenomena:N/A
Clouds:Few 075 Hf
Broken 095 Hf
Overcast 130 Hf
Expected CloudBase > 1,200 ft AGL from Temp-Dew spread
Ceiling9,500 ft
Temp08°C (ISA -7)
Dew Point05°C (82% RH)
AAT4.7°C
QNH1010 hPa
Density Alt-600 ft
Elevation16 ft
Report Wrong Elevation
Raw Report
PAJN 212153Z 24006KT 10SM FEW075 BKN095 OVC130 08/05 A2983 RMK AO2
SLP100 T00830050=

Extra information for PAJN:More info

Metar Taf Metar & Taf Last 4 Metars F.Rules Stats Wind Profile Meteogram Temp Stats Airport Information Weather charts Add Link Nearby VenuesMetar ALERT Operation Metar Decoded Social comments

AIRNAV info for PAJN